Time;durP1;ratioP1;P1;durP2;ratioP2;P2;SDS_P1;SDS_P2;PMS_P1;PMS_P2;Temp;Humidity;BMP_temperature;BMP_pressure;BME280_temperature;BME280_humidity;BME280_pressure;Samples;Min_cycle;Max_cycle;Signal;HPM_P1;HPM_P2
2022/01/04 00:01:14;;;;;;;4.25;2.00;;;;;;;-7.40;93.83;99135.69;5094671;28;20047;-76
2022/01/04 00:03:43;;;;;;;1.42;1.33;;;;;;;-7.39;94.19;99129.31;5094399;28;20043;-76
2022/01/04 00:06:09;;;;;;;3.45;1.90;;;;;;;-7.38;94.15;99132.81;5094544;28;20173;-76
2022/01/04 00:08:35;;;;;;;2.70;1.70;;;;;;;-7.38;94.11;99127.47;5076480;28;20062;-76
2022/01/04 00:11:19;;;;;;;5.28;2.08;;;;;;;-7.36;94.58;99136.91;5076478;28;20395;-76
2022/01/04 00:13:45;;;;;;;3.80;2.40;;;;;;;-7.36;94.64;99130.75;5076207;28;20092;-76
2022/01/04 00:16:11;;;;;;;3.95;2.25;;;;;;;-7.37;94.25;99132.59;5094700;28;20084;-75
2022/01/04 00:18:38;;;;;;;4.63;2.45;;;;;;;-7.35;94.71;99125.22;5075997;28;20059;-76
2022/01/04 00:21:04;;;;;;;4.28;2.58;;;;;;;-7.34;94.17;99128.72;5076230;28;20501;-76
2022/01/04 00:23:30;;;;;;;4.30;2.08;;;;;;;-7.34;94.29;99118.88;5092768;28;20040;-76
2022/01/04 00:25:56;;;;;;;4.72;2.40;;;;;;;-7.33;94.54;99119.69;5094032;28;20040;-76
2022/01/04 00:28:21;;;;;;;6.35;2.58;;;;;;;-7.35;94.38;99127.88;5092928;28;20040;-77
2022/01/04 00:30:47;;;;;;;3.15;2.15;;;;;;;-7.35;94.41;99121.75;5094037;28;20040;-75
2022/01/04 00:33:14;;;;;;;4.65;2.00;;;;;;;-7.34;93.95;99118.06;5093935;28;20040;-77
2022/01/04 00:35:40;;;;;;;4.28;2.25;;;;;;;-7.32;94.30;99121.31;5075845;28;20036;-75
2022/01/04 00:38:06;;;;;;;3.80;2.30;;;;;;;-7.33;94.01;99123.19;5093882;28;20036;-75
2022/01/04 00:40:32;;;;;;;3.80;2.13;;;;;;;-7.34;93.75;99113.53;5092940;28;20087;-76
2022/01/04 00:42:58;;;;;;;4.35;1.90;;;;;;;-7.35;94.30;99116.41;5094194;28;20046;-76
2022/01/04 00:45:31;;;;;;;1.98;1.27;;;;;;;-7.36;93.98;99114.78;5094147;28;20043;-77
2022/01/04 00:50:23;;;;;;;4.63;2.55;;;;;;;-7.33;94.06;99114.34;5093888;28;20039;-76
2022/01/04 00:52:49;;;;;;;4.18;2.00;;;;;;;-7.35;93.97;99116.41;5093105;28;20154;-76
2022/01/04 00:55:15;;;;;;;4.45;2.33;;;;;;;-7.35;93.99;99103.09;5093701;28;20092;-76
2022/01/04 00:57:41;;;;;;;5.75;3.42;;;;;;;-7.34;93.45;99105.53;5092293;28;20093;-76
2022/01/04 01:00:09;;;;;;;3.80;2.28;;;;;;;-7.34;93.68;99113.53;5075568;28;20517;-77
2022/01/04 01:02:34;;;;;;;3.92;1.17;;;;;;;-7.34;93.42;99112.72;5075343;28;20139;-77
2022/01/04 01:05:00;;;;;;;3.58;1.88;;;;;;;-7.33;93.45;99111.69;5075774;28;20165;-77
2022/01/04 01:07:26;;;;;;;3.25;2.20;;;;;;;-7.34;93.61;99099.41;5093235;28;20131;-76
2022/01/04 01:10:21;;;;;;;3.25;2.30;;;;;;;-7.34;93.33;99088.75;5092109;28;20036;-77
2022/01/04 01:12:47;;;;;;;1.90;1.27;;;;;;;-7.35;93.84;99095.09;5091907;28;20039;-77
2022/01/04 01:15:13;;;;;;;2.60;1.25;;;;;;;-7.35;93.72;99089.78;5075569;28;20044;-76
2022/01/04 01:17:38;;;;;;;5.45;2.75;;;;;;;-7.33;93.71;99083.19;5093281;28;20036;-76
2022/01/04 01:20:06;;;;;;;6.95;2.63;;;;;;;-7.33;93.97;99082.38;5092052;28;20044;-76
2022/01/04 01:22:32;;;;;;;6.28;2.50;;;;;;;-7.34;93.43;99080.75;5093487;28;20063;-76
2022/01/04 01:24:57;;;;;;;3.78;2.10;;;;;;;-7.35;93.40;99079.94;5075269;28;20124;-76
2022/01/04 01:27:23;;;;;;;5.95;2.35;;;;;;;-7.33;93.55;99082.38;5093025;28;20048;-76
2022/01/04 01:29:48;;;;;;;5.88;2.00;;;;;;;-7.31;93.57;99088.31;5092922;28;20047;-76
2022/01/04 01:32:14;;;;;;;4.47;2.25;;;;;;;-7.32;93.46;99084.84;5093083;28;20036;-77
2022/01/04 01:34:41;;;;;;;4.60;1.90;;;;;;;-7.31;93.53;99085.66;5091481;28;20089;-76
2022/01/04 01:37:07;;;;;;;4.63;2.35;;;;;;;-7.33;93.96;99088.53;5092668;28;20097;-76
2022/01/04 01:39:32;;;;;;;3.85;2.30;;;;;;;-7.33;93.55;99096.53;5074613;28;20226;-77
2022/01/04 01:41:58;;;;;;;3.40;1.52;;;;;;;-7.33;93.30;99082.38;5074674;28;20492;-77
2022/01/04 01:44:24;;;;;;;3.40;1.75;;;;;;;-7.33;93.50;99082.38;5091591;28;20039;-76
2022/01/04 01:46:50;;;;;;;7.28;2.75;;;;;;;-7.32;93.33;99078.69;5074483;28;20040;-77
2022/01/04 01:49:15;;;;;;;3.88;2.22;;;;;;;-7.32;93.39;99078.69;5074821;28;20122;-76
2022/01/04 01:51:41;;;;;;;3.97;1.83;;;;;;;-7.32;93.15;99074.19;5092272;28;20122;-77
2022/01/04 01:54:07;;;;;;;5.63;2.05;;;;;;;-7.33;93.47;99083.19;5092390;28;20067;-76
2022/01/04 01:56:32;;;;;;;5.18;2.75;;;;;;;-7.32;93.94;99086.69;5074589;28;20058;-76
2022/01/04 01:58:58;;;;;;;2.75;1.50;;;;;;;-7.32;93.17;99084.03;5074670;28;20410;-77
2022/01/04 02:01:25;;;;;;;2.67;1.83;;;;;;;-7.32;93.09;99086.69;5091192;28;20498;-76
2022/01/04 02:03:50;;;;;;;1.50;1.25;;;;;;;-7.33;92.95;99087.72;5091641;28;20040;-77
2022/01/04 02:06:17;;;;;;;3.00;1.52;;;;;;;-7.34;93.09;99078.09;5092584;28;20089;-77
2022/01/04 02:08:43;;;;;;;3.88;1.98;;;;;;;-7.34;93.46;99070.09;5091963;28;20135;-76
2022/01/04 02:11:09;;;;;;;4.30;2.13;;;;;;;-7.36;93.08;99080.97;5092183;28;20123;-76
2022/01/04 02:13:34;;;;;;;3.70;1.85;;;;;;;-7.35;93.62;99076.44;5090844;28;20047;-77
2022/01/04 02:16:02;;;;;;;2.67;1.63;;;;;;;-7.35;93.14;99068.44;5092447;28;20089;-77
2022/01/04 02:18:28;;;;;;;5.22;2.45;;;;;;;-7.35;93.79;99079.09;5090627;28;20131;-76
2022/01/04 02:20:54;;;;;;;8.98;2.47;;;;;;;-7.36;94.01;99067.63;5090901;28;20048;-75
2022/01/04 02:23:20;;;;;;;3.30;1.52;;;;;;;-7.37;93.56;99067.84;5073912;28;20524;-75
2022/01/04 02:25:45;;;;;;;4.53;2.30;;;;;;;-7.37;93.61;99065.19;5091982;28;20126;-75
2022/01/04 02:28:11;;;;;;;2.88;2.10;;;;;;;-7.37;94.20;99065.19;5091871;28;20040;-75
2022/01/04 02:30:37;;;;;;;4.43;2.80;;;;;;;-7.38;93.95;99080.34;5090495;28;20040;-75
2022/01/04 02:33:02;;;;;;;3.83;2.08;;;;;;;-7.37;93.78;99070.50;5090963;28;20039;-77
2022/01/04 02:35:32;;;;;;;3.70;2.05;;;;;;;-7.36;93.41;99072.13;5073557;28;20040;-76
2022/01/04 02:37:59;;;;;;;2.55;1.42;;;;;;;-7.33;93.82;99061.06;5091493;28;20035;-76
2022/01/04 02:40:26;;;;;;;4.03;1.67;;;;;;;-7.33;93.72;99067.22;5073926;28;20048;-77
2022/01/04 02:42:52;;;;;;;5.57;2.58;;;;;;;-7.34;93.69;99070.91;5056861;28;20035;-76
2022/01/04 02:45:18;;;;;;;2.95;2.15;;;;;;;-7.33;92.86;99071.72;5091568;28;20036;-77
2022/01/04 02:47:44;;;;;;;4.25;2.22;;;;;;;-7.32;93.62;99068.03;5091641;28;20120;-77
2022/01/04 02:50:10;;;;;;;2.28;1.60;;;;;;;-7.33;93.29;99058.41;5073475;28;20036;-76
2022/01/04 02:52:38;;;;;;;5.97;2.55;;;;;;;-7.34;93.73;99070.09;5091292;28;20548;-77
2022/01/04 02:55:06;;;;;;;4.70;2.28;;;;;;;-7.35;94.02;99065.78;5090634;28;20060;-77
2022/01/04 02:57:32;;;;;;;2.53;1.87;;;;;;;-7.35;93.78;99057.78;5091448;28;20410;-77
2022/01/04 02:59:58;;;;;;;4.75;2.80;;;;;;;-7.35;93.03;99057.78;5073088;28;20343;-76
2022/01/04 03:02:24;;;;;;;5.57;1.58;;;;;;;-7.35;93.81;99049.81;5073279;28;20044;-76
2022/01/04 03:04:50;;;;;;;3.75;2.25;;;;;;;-7.32;93.81;99052.06;5073095;28;20036;-77
2022/01/04 03:07:16;;;;;;;3.15;1.77;;;;;;;-7.32;93.33;99057.38;5091589;28;20058;-76
2022/01/04 03:09:41;;;;;;;4.80;2.72;;;;;;;-7.31;93.16;99059.84;5056291;28;20136;-77
2022/01/04 03:12:08;;;;;;;5.22;2.80;;;;;;;-7.29;93.04;99051.63;5091218;28;20097;-76
2022/01/04 03:14:34;;;;;;;4.55;2.13;;;;;;;-7.31;93.22;99054.50;5072989;28;20036;-76
2022/01/04 03:17:00;;;;;;;5.07;2.90;;;;;;;-7.30;93.95;99058.00;5091009;28;20127;-76
2022/01/04 03:19:26;;;;;;;3.38;2.47;;;;;;;-7.32;93.03;99054.72;5073164;28;20052;-77
2022/01/04 03:21:51;;;;;;;5.93;1.85;;;;;;;-7.31;93.11;99048.34;5073146;28;20067;-76
2022/01/04 03:24:17;;;;;;;4.57;1.85;;;;;;;-7.30;92.96;99042.00;5073382;28;20066;-76
2022/01/04 03:26:43;;;;;;;5.00;2.00;;;;;;;-7.29;93.91;99046.31;5056197;28;20040;-76
2022/01/04 03:29:11;;;;;;;4.57;1.98;;;;;;;-7.31;93.15;99043.03;5056379;28;20039;-77
2022/01/04 03:31:37;;;;;;;6.47;2.47;;;;;;;-7.31;93.96;99037.69;5072981;28;20106;-76
2022/01/04 03:34:03;;;;;;;4.03;2.15;;;;;;;-7.32;93.18;99020.91;5090958;28;20577;-77
2022/01/04 03:36:28;;;;;;;2.90;2.30;;;;;;;-7.30;92.88;99034.00;5056333;28;20067;-76
2022/01/04 03:38:55;;;;;;;5.07;2.08;;;;;;;-7.31;93.08;99017.19;5073032;28;20502;-76
2022/01/04 03:41:23;;;;;;;6.03;3.22;;;;;;;-7.28;92.83;99021.31;5072996;28;20189;-76
2022/01/04 03:43:49;;;;;;;4.90;1.90;;;;;;;-7.28;93.08;99032.00;5072933;28;20047;-77
2022/01/04 03:46:15;;;;;;;2.33;1.33;;;;;;;-7.28;92.98;99025.84;5092151;28;20071;-76
2022/01/04 03:48:41;;;;;;;3.40;2.08;;;;;;;-7.28;93.31;99029.31;5090782;28;20071;-76
2022/01/04 03:51:07;;;;;;;4.32;2.25;;;;;;;-7.28;93.33;99032.00;5089972;28;20048;-77
2022/01/04 03:53:33;;;;;;;4.05;2.28;;;;;;;-7.30;93.07;99039.34;5072874;28;20043;-76
2022/01/04 03:55:59;;;;;;;6.40;2.28;;;;;;;-7.29;92.76;99030.31;5072705;28;20067;-76
2022/01/04 03:58:24;;;;;;;5.53;2.65;;;;;;;-7.30;93.63;99034.00;5089721;28;20413;-76
2022/01/04 04:00:50;;;;;;;4.68;1.98;;;;;;;-7.30;93.35;99018.03;5090555;28;20040;-77
2022/01/04 04:03:16;;;;;;;5.97;2.15;;;;;;;-7.30;93.13;99034.81;5089372;28;20443;-76
2022/01/04 04:05:42;;;;;;;4.30;2.10;;;;;;;-7.30;93.46;99024.16;5089582;28;20036;-76
2022/01/04 04:08:08;;;;;;;4.10;2.10;;;;;;;-7.30;93.28;99031.34;5056076;28;20051;-76
2022/01/04 04:10:33;;;;;;;5.80;2.45;;;;;;;-7.29;93.18;99032.97;5090643;28;20040;-76
2022/01/04 04:12:59;;;;;;;3.17;2.03;;;;;;;-7.28;93.08;99037.31;5072431;28;20123;-76
2022/01/04 04:15:25;;;;;;;3.90;2.13;;;;;;;-7.30;93.00;99018.84;5090665;28;20101;-76
2022/01/04 04:17:50;;;;;;;7.57;2.42;;;;;;;-7.30;93.70;99034.00;5090449;28;20044;-76
2022/01/04 04:20:16;;;;;;;4.90;2.45;;;;;;;-7.31;93.42;99021.72;5090540;28;20052;-76
2022/01/04 04:22:42;;;;;;;6.15;2.45;;;;;;;-7.30;93.13;99024.16;5072398;28;20040;-77
2022/01/04 04:25:08;;;;;;;6.38;2.67;;;;;;;-7.28;93.15;99024.00;5072479;28;20055;-76
2022/01/04 04:27:34;;;;;;;3.72;1.95;;;;;;;-7.30;93.42;99029.50;5074186;28;20138;-76
2022/01/04 04:29:59;;;;;;;5.00;2.20;;;;;;;-7.28;93.62;99032.00;5059231;28;20210;-76
2022/01/04 04:32:25;;;;;;;6.97;2.83;;;;;;;-7.27;93.22;99033.63;5076001;28;20460;-76
2022/01/04 04:34:51;;;;;;;4.85;2.20;;;;;;;-7.28;92.92;99020.50;5075881;28;20044;-76
2022/01/04 04:37:16;;;;;;;3.30;1.60;;;;;;;-7.28;93.44;99020.50;5094325;28;20047;-76
2022/01/04 04:39:42;;;;;;;8.63;3.05;;;;;;;-7.30;93.89;99016.19;5092576;28;20043;-76
2022/01/04 04:42:08;;;;;;;5.95;2.70;;;;;;;-7.30;92.91;99018.03;5059245;28;20079;-76
2022/01/04 04:44:34;;;;;;;5.15;2.35;;;;;;;-7.30;93.79;99018.03;5075663;28;20036;-76
2022/01/04 04:46:59;;;;;;;3.50;2.00;;;;;;;-7.29;93.47;99009.00;5093550;28;20127;-76
2022/01/04 04:49:25;;;;;;;3.95;2.25;;;;;;;-7.28;93.12;99010.66;5075594;28;20040;-75
2022/01/04 04:51:50;;;;;;;3.10;1.80;;;;;;;-7.29;93.49;99006.34;5093674;28;20417;-76
2022/01/04 04:54:16;;;;;;;4.97;2.28;;;;;;;-7.27;93.72;99014.97;5092357;28;20054;-75
2022/01/04 04:56:42;;;;;;;5.03;2.95;;;;;;;-7.26;93.41;99011.28;5093475;28;20039;-75
2022/01/04 04:59:08;;;;;;;3.63;1.65;;;;;;;-7.26;93.53;99005.94;5094098;28;20483;-75
2022/01/04 05:01:35;;;;;;;3.22;2.25;;;;;;;-7.27;93.11;99001.66;5075618;28;20036;-75
2022/01/04 05:04:01;;;;;;;3.42;2.20;;;;;;;-7.28;92.99;99010.66;5093461;28;20039;-75
2022/01/04 05:06:26;;;;;;;3.42;2.42;;;;;;;-7.28;93.17;99015.19;5093383;28;20122;-75
2022/01/04 05:08:53;;;;;;;4.30;2.17;;;;;;;-7.27;93.47;99006.16;5092289;28;20079;-76
2022/01/04 05:11:18;;;;;;;7.65;2.00;;;;;;;-7.27;93.58;99006.16;5093400;28;20036;-75
2022/01/04 05:13:44;;;;;;;7.53;2.28;;;;;;;-7.28;93.51;99002.69;5075183;28;20131;-75
2022/01/04 05:16:11;;;;;;;5.35;2.00;;;;;;;-7.30;93.13;99008.19;5075641;28;20043;-75
2022/01/04 05:18:36;;;;;;;3.15;2.28;;;;;;;-7.30;93.65;99005.53;5092971;28;20101;-76
2022/01/04 05:21:03;;;;;;;3.65;2.08;;;;;;;-7.28;93.43;99012.50;5091881;28;20510;-75
2022/01/04 05:23:30;;;;;;;5.05;2.30;;;;;;;-7.27;93.15;99011.50;5091959;28;20036;-76
2022/01/04 05:25:56;;;;;;;4.35;2.50;;;;;;;-7.27;93.72;99019.47;5093297;28;20101;-75
2022/01/04 05:28:21;;;;;;;4.65;1.95;;;;;;;-7.27;93.80;99011.50;5093015;28;20040;-75
2022/01/04 05:30:47;;;;;;;5.03;2.20;;;;;;;-7.27;93.50;98996.31;5091925;28;20406;-75
2022/01/04 05:33:13;;;;;;;4.88;1.92;;;;;;;-7.27;92.90;99011.50;5075532;28;20142;-75
2022/01/04 05:35:38;;;;;;;3.00;1.90;;;;;;;-7.26;93.58;99019.28;5093300;28;20051;-75
2022/01/04 05:38:04;;;;;;;3.00;2.33;;;;;;;-7.26;93.20;99016.59;5074566;28;20047;-76
2022/01/04 05:40:29;;;;;;;4.15;2.75;;;;;;;-7.26;93.93;99013.94;5093067;28;20047;-76
2022/01/04 05:42:55;;;;;;;2.50;2.00;;;;;;;-7.23;93.72;99012.72;5092868;28;20040;-75
2022/01/04 05:45:21;;;;;;;3.60;1.70;;;;;;;-7.21;93.34;99010.66;5091524;28;20035;-76
2022/01/04 05:47:46;;;;;;;2.70;1.70;;;;;;;-7.21;93.67;99010.66;5092652;28;20077;-76
2022/01/04 05:50:12;;;;;;;2.60;1.92;;;;;;;-7.20;93.66;99009.63;5091559;28;20173;-76
2022/01/04 05:52:38;;;;;;;5.20;1.83;;;;;;;-7.20;94.00;98999.78;5074586;28;20133;-76
2022/01/04 05:55:04;;;;;;;5.18;2.65;;;;;;;-7.19;93.19;99019.25;5092462;28;20512;-76
2022/01/04 05:57:30;;;;;;;3.78;2.25;;;;;;;-7.20;94.00;99005.13;5074450;28;20489;-75
2022/01/04 05:59:57;;;;;;;5.00;2.90;;;;;;;-7.20;93.77;99014.94;5057465;28;20044;-77
2022/01/04 06:02:23;;;;;;;3.58;2.17;;;;;;;-7.23;93.52;99002.88;5092383;28;20063;-77
2022/01/04 06:04:48;;;;;;;2.58;1.83;;;;;;;-7.22;94.09;99009.84;5091014;28;20072;-74
2022/01/04 06:07:14;;;;;;;5.35;2.42;;;;;;;-7.22;93.78;99011.69;5091001;28;20044;-75
2022/01/04 06:09:48;;;;;;;5.43;2.33;;;;;;;-7.22;93.46;99003.69;5074148;28;20098;-75
2022/01/04 06:15:06;;;;;;;3.67;1.92;;;;;;;-7.23;93.49;99008.19;5090923;28;20051;-75
2022/01/04 06:17:34;;;;;;;2.90;1.50;;;;;;;-7.23;93.85;99002.88;5091980;28;20044;-75
2022/01/04 06:20:00;;;;;;;3.42;2.47;;;;;;;-7.25;93.78;98998.78;5073555;28;20130;-75
2022/01/04 06:22:27;;;;;;;4.88;2.20;;;;;;;-7.24;93.21;98993.22;5090674;28;20032;-76
2022/01/04 06:24:54;;;;;;;1.75;1.30;;;;;;;-7.24;93.27;98992.41;5091715;28;20043;-76
2022/01/04 06:27:20;;;;;;;4.45;2.00;;;;;;;-7.23;93.97;98986.88;5073494;28;20414;-76
2022/01/04 06:29:46;;;;;;;2.83;1.98;;;;;;;-7.24;93.72;98987.91;5091653;28;20036;-76
2022/01/04 06:32:12;;;;;;;3.70;1.92;;;;;;;-7.24;93.82;98984.41;5092003;28;20036;-77
2022/01/04 06:34:39;;;;;;;3.15;1.42;;;;;;;-7.23;93.47;98988.72;5090583;28;20135;-77
2022/01/04 06:37:05;;;;;;;2.20;1.65;;;;;;;-7.20;94.02;98985.63;5090613;28;20048;-77
2022/01/04 06:39:31;;;;;;;5.35;2.90;;;;;;;-7.17;93.99;98996.69;5090486;28;20043;-77
2022/01/04 06:41:56;;;;;;;5.25;2.28;;;;;;;-7.18;94.00;98996.91;5073271;28;20036;-75
2022/01/04 06:44:22;;;;;;;3.58;2.25;;;;;;;-7.21;93.85;98984.81;5091806;28;20043;-76
2022/01/04 06:46:47;;;;;;;3.83;2.55;;;;;;;-7.23;94.43;98996.72;5091614;28;20058;-77
2022/01/04 06:49:14;;;;;;;3.72;1.75;;;;;;;-7.24;94.50;98995.09;5090279;28;20086;-75
2022/01/04 06:51:41;;;;;;;5.10;1.98;;;;;;;-7.24;93.60;98985.25;5091330;28;20561;-76
2022/01/04 06:54:08;;;;;;;5.63;2.80;;;;;;;-7.25;94.17;98988.94;5094624;28;20438;-77
2022/01/04 06:56:34;;;;;;;5.45;1.58;;;;;;;-7.23;94.12;98994.06;5073675;28;20051;-77
2022/01/04 06:59:00;;;;;;;4.28;2.53;;;;;;;-7.20;94.19;98997.13;5090277;28;20074;-76
2022/01/04 07:01:25;;;;;;;3.85;2.15;;;;;;;-7.21;94.25;98990.16;5091531;28;20071;-76
2022/01/04 07:03:51;;;;;;;2.20;1.73;;;;;;;-7.19;93.90;98981.94;5091236;28;20036;-76
2022/01/04 07:06:17;;;;;;;4.50;1.55;;;;;;;-7.20;94.55;98974.97;5091169;28;20070;-77
2022/01/04 07:08:43;;;;;;;5.05;2.47;;;;;;;-7.18;94.07;98970.25;5092738;28;20502;-76
2022/01/04 07:11:09;;;;;;;3.88;2.47;;;;;;;-7.17;93.97;98980.72;5092120;28;20482;-77
2022/01/04 07:13:34;;;;;;;5.60;2.50;;;;;;;-7.15;94.58;98983.16;5074226;28;20040;-76
2022/01/04 07:16:00;;;;;;;3.63;2.20;;;;;;;-7.16;93.95;98987.69;5056661;28;20040;-77
2022/01/04 07:18:26;;;;;;;5.15;2.50;;;;;;;-7.14;94.17;98974.97;5092111;28;20028;-76
2022/01/04 07:20:51;;;;;;;4.05;2.35;;;;;;;-7.14;94.04;98982.13;5090924;28;20036;-77
2022/01/04 07:23:17;;;;;;;5.47;2.55;;;;;;;-7.15;94.30;98973.31;5091314;28;20489;-76
2022/01/04 07:25:42;;;;;;;3.63;2.13;;;;;;;-7.12;94.21;98966.75;5073117;28;20043;-77
2022/01/04 07:28:08;;;;;;;7.07;2.92;;;;;;;-7.12;94.29;98972.91;5089529;28;20036;-77
2022/01/04 07:30:34;;;;;;;3.55;2.15;;;;;;;-7.12;94.09;98970.22;5089776;28;20040;-76
2022/01/04 07:33:00;;;;;;;5.18;2.40;;;;;;;-7.11;94.48;98963.09;5072927;28;20106;-76
2022/01/04 07:35:26;;;;;;;4.45;2.55;;;;;;;-7.11;94.28;98971.09;5089528;28;20036;-76
2022/01/04 07:37:51;;;;;;;3.22;2.30;;;;;;;-7.09;93.71;98967.19;5089814;28;20503;-75
2022/01/04 07:40:18;;;;;;;3.28;2.28;;;;;;;-7.07;93.58;98972.31;5090841;28;20069;-75
2022/01/04 07:42:43;;;;;;;5.28;2.15;;;;;;;-7.06;93.65;98974.75;5072883;28;20040;-76
2022/01/04 07:45:09;;;;;;;1.77;1.60;;;;;;;-7.06;93.85;98969.41;5072744;28;20039;-76
2022/01/04 07:47:35;;;;;;;5.22;2.80;;;;;;;-7.06;93.22;98963.28;5090665;28;20203;-76
2022/01/04 07:50:01;;;;;;;4.50;2.60;;;;;;;-7.06;93.60;98960.59;5091016;28;20494;-77
2022/01/04 07:52:26;;;;;;;5.65;2.83;;;;;;;-7.04;93.88;98959.38;5091007;28;20192;-77
2022/01/04 07:54:53;;;;;;;2.40;1.42;;;;;;;-7.04;93.70;98961.22;5090978;28;20047;-77
2022/01/04 07:57:19;;;;;;;6.03;3.33;;;;;;;-7.03;93.10;98960.19;5090511;28;20134;-77
2022/01/04 07:59:45;;;;;;;4.47;2.60;;;;;;;-7.03;93.99;98968.19;5090998;28;20185;-77
2022/01/04 08:02:10;;;;;;;4.78;2.45;;;;;;;-7.04;93.84;98951.38;5073678;28;20043;-77
2022/01/04 08:04:36;;;;;;;4.45;2.30;;;;;;;-7.00;93.54;98962.44;5094640;28;20104;-77
2022/01/04 08:07:01;;;;;;;5.63;2.78;;;;;;;-7.00;93.55;98963.25;5094323;28;20036;-77
2022/01/04 08:09:28;;;;;;;2.08;1.17;;;;;;;-7.02;93.45;98962.63;5093414;28;20036;-77
2022/01/04 08:11:54;;;;;;;4.30;2.55;;;;;;;-7.03;93.60;98949.53;5076417;28;20506;-77
2022/01/04 08:14:20;;;;;;;5.07;2.58;;;;;;;-6.99;93.75;98967.53;5094385;28;20044;-77
2022/01/04 08:16:45;;;;;;;4.22;2.50;;;;;;;-6.97;92.97;98963.84;5094438;28;20119;-77
2022/01/04 08:19:11;;;;;;;3.88;2.08;;;;;;;-6.96;93.16;98971.63;5094161;28;20058;-77
2022/01/04 08:21:36;;;;;;;4.30;2.28;;;;;;;-6.95;92.69;98978.59;5094225;28;20557;-77
2022/01/04 08:24:02;;;;;;;7.78;2.83;;;;;;;-6.96;93.11;98978.81;5076380;28;20505;-76
2022/01/04 08:26:28;;;;;;;7.25;3.38;;;;;;;-6.97;93.31;98978.00;5076021;28;20205;-75
2022/01/04 08:28:55;;;;;;;6.03;2.97;;;;;;;-6.96;93.12;98960.16;5094094;28;20044;-76
2022/01/04 08:31:20;;;;;;;6.40;2.70;;;;;;;-6.95;92.77;98964.47;5094188;28;20525;-76
2022/01/04 08:33:46;;;;;;;5.03;3.05;;;;;;;-6.94;93.54;98958.09;5094091;28;20036;-76
2022/01/04 08:36:11;;;;;;;9.55;3.40;;;;;;;-6.92;93.33;98962.22;5093858;28;20486;-76
2022/01/04 08:38:39;;;;;;;6.15;3.10;;;;;;;-6.92;93.12;98951.56;5075876;28;20487;-76
2022/01/04 08:41:05;;;;;;;5.07;2.55;;;;;;;-6.91;92.58;98960.38;5093656;28;20052;-76
2022/01/04 08:43:31;;;;;;;5.72;3.13;;;;;;;-6.91;92.86;98950.53;5058963;28;20043;-77
2022/01/04 08:45:56;;;;;;;8.18;3.25;;;;;;;-6.87;92.52;98956.25;5075709;28;20032;-77
2022/01/04 08:48:22;;;;;;;7.68;2.83;;;;;;;-6.84;92.62;98956.63;5093732;28;20043;-77
2022/01/04 08:50:49;;;;;;;5.40;3.13;;;;;;;-6.83;92.56;98966.28;5075590;28;20047;-77
2022/01/04 08:53:15;;;;;;;6.28;3.45;;;;;;;-6.84;93.33;98935.31;5091976;28;20554;-77
2022/01/04 08:55:41;;;;;;;3.85;1.83;;;;;;;-6.83;93.53;98941.47;5092405;28;20036;-77
2022/01/04 08:58:07;;;;;;;8.18;4.32;;;;;;;-6.82;92.45;98948.44;5075293;28;20043;-74
2022/01/04 09:00:33;;;;;;;5.32;3.08;;;;;;;-6.82;93.07;98946.56;5093622;28;20032;-77
2022/01/04 09:03:00;;;;;;;5.57;3.05;;;;;;;-6.78;93.26;98946.97;5093503;28;20036;-77
2022/01/04 09:05:26;;;;;;;5.97;2.78;;;;;;;-6.76;92.57;98932.41;5093507;28;20055;-77
2022/01/04 09:07:52;;;;;;;6.00;2.20;;;;;;;-6.75;92.91;98920.72;5091956;28;20051;-77
2022/01/04 09:10:18;;;;;;;5.43;2.88;;;;;;;-6.73;92.65;98932.00;5075141;28;20036;-76
2022/01/04 09:15:31;;;;;;;7.65;3.55;;;;;;;-6.69;92.34;98927.88;5093387;28;20085;-76
2022/01/04 09:20:45;;;;;;;2.97;1.83;;;;;;;-6.65;93.11;98925.59;5092029;28;20047;-76
2022/01/04 09:23:13;;;;;;;5.45;3.65;;;;;;;-6.65;92.79;98916.75;5075122;28;20040;-77
2022/01/04 09:25:39;;;;;;;3.92;2.50;;;;;;;-6.65;93.20;98904.25;5093409;28;20039;-75
2022/01/04 09:28:05;;;;;;;5.95;3.20;;;;;;;-6.61;92.45;98905.44;5074696;28;20056;-77
2022/01/04 09:30:30;;;;;;;5.32;2.92;;;;;;;-6.59;92.89;98914.09;5092846;28;20072;-75
2022/01/04 09:32:56;;;;;;;8.15;4.10;;;;;;;-6.58;92.70;98917.56;5093058;28;20042;-76
2022/01/04 09:35:21;;;;;;;6.57;3.10;;;;;;;-6.58;92.73;98920.25;5074673;28;20032;-77
2022/01/04 09:37:47;;;;;;;8.63;3.35;;;;;;;-6.57;92.09;98914.69;5092843;28;20425;-77
2022/01/04 09:40:12;;;;;;;7.25;3.67;;;;;;;-6.58;92.29;98910.38;5091371;28;20036;-77
2022/01/04 09:42:38;;;;;;;7.45;4.13;;;;;;;-6.57;92.26;98895.19;5074550;28;20054;-76
2022/01/04 09:45:05;;;;;;;6.00;3.03;;;;;;;-6.55;92.65;98906.47;5092543;28;20086;-77
2022/01/04 09:47:31;;;;;;;5.82;2.60;;;;;;;-6.55;93.50;98898.47;5092451;28;20036;-76
2022/01/04 09:49:58;;;;;;;4.88;2.92;;;;;;;-6.56;92.93;98894.16;5092493;28;20276;-76
2022/01/04 09:52:24;;;;;;;8.43;3.30;;;;;;;-6.56;92.99;98899.50;5092269;28;20040;-77
2022/01/04 09:54:52;;;;;;;6.20;3.25;;;;;;;-6.56;92.65;98900.31;5074227;28;20035;-76
2022/01/04 09:57:18;;;;;;;6.80;3.10;;;;;;;-6.53;93.38;98896.41;5091304;28;20506;-77
2022/01/04 09:59:44;;;;;;;5.35;3.75;;;;;;;-6.52;93.77;98896.19;5074334;28;20181;-76
2022/01/04 10:02:15;;;;;;;4.70;3.30;;;;;;;-6.52;93.32;98890.84;5074399;28;20039;-76
2022/01/04 10:04:41;;;;;;;8.27;3.42;;;;;;;-6.49;93.07;98902.94;5091291;28;20043;-76
2022/01/04 10:07:07;;;;;;;5.97;3.10;;;;;;;-6.50;92.97;98894.13;5091980;28;20032;-76
2022/01/04 10:09:45;;;;;;;4.65;2.35;;;;;;;-6.49;93.23;98901.09;5074007;28;20502;-76
2022/01/04 10:12:16;;;;;;;5.57;3.28;;;;;;;-6.46;93.29;98894.50;5092260;28;20097;-76
2022/01/04 10:14:47;;;;;;;5.93;2.95;;;;;;;-6.44;92.99;98893.25;5091956;28;20502;-76
2022/01/04 10:17:20;;;;;;;6.68;3.35;;;;;;;-6.42;93.30;98893.03;5091851;28;20036;-76
2022/01/04 10:19:48;;;;;;;6.45;3.58;;;;;;;-6.42;93.14;98888.53;5073753;28;20128;-75
2022/01/04 10:22:23;;;;;;;6.63;3.65;;;;;;;-6.41;93.71;98886.69;5091839;28;20045;-75
2022/01/04 10:25:08;;;;;;;7.18;3.53;;;;;;;-6.40;94.01;98880.31;5072942;28;20036;-77
2022/01/04 10:27:33;;;;;;;8.20;3.72;;;;;;;-6.39;92.87;98887.28;5090674;28;20040;-77
2022/01/04 10:30:29;;;;;;;11.13;4.35;;;;;;;-6.40;93.55;98880.31;5090450;28;20119;-78
2022/01/04 10:33:12;;;;;;;7.97;3.78;;;;;;;-6.38;93.08;98868.41;5086196;28;20056;-75
2022/01/04 10:35:41;;;;;;;5.05;2.95;;;;;;;-6.35;93.16;98858.31;5091901;28;20108;-75
2022/01/04 10:38:26;;;;;;;6.07;2.47;;;;;;;-6.34;93.31;98860.78;5091385;28;20036;-75
2022/01/04 10:41:02;;;;;;;7.47;4.00;;;;;;;-6.30;93.89;98858.47;5058927;28;20086;-76
2022/01/04 10:43:31;;;;;;;7.32;3.35;;;;;;;-6.29;93.84;98852.94;5090588;28;20040;-75
2022/01/04 10:45:58;;;;;;;9.35;3.38;;;;;;;-6.27;93.75;98842.03;5090258;28;20092;-76
2022/01/04 10:48:29;;;;;;;6.90;3.90;;;;;;;-6.25;93.12;98850.63;5091288;28;20039;-75
2022/01/04 10:51:05;;;;;;;8.38;4.38;;;;;;;-6.23;94.00;98840.59;5091392;28;20047;-76
2022/01/04 10:53:36;;;;;;;8.60;4.40;;;;;;;-6.24;93.73;98830.94;5073452;28;20458;-77
2022/01/04 10:56:05;;;;;;;7.88;3.40;;;;;;;-6.23;93.02;98822.72;5090201;28;20494;-77
2022/01/04 10:58:46;;;;;;;8.45;4.30;;;;;;;-6.18;93.88;98827.41;5073285;28;20112;-77
2022/01/04 11:01:20;;;;;;;5.32;3.15;;;;;;;-6.17;92.85;98821.03;5091074;28;20040;-77
2022/01/04 11:03:51;;;;;;;6.63;3.83;;;;;;;-6.12;93.32;98831.84;5091337;28;20067;-77
2022/01/04 11:06:36;;;;;;;7.55;3.75;;;;;;;-6.12;93.15;98824.66;5073350;28;20495;-77
2022/01/04 11:09:03;;;;;;;10.45;4.00;;;;;;;-6.11;92.81;98820.13;5090009;28;20494;-77
2022/01/04 11:11:29;;;;;;;10.70;4.45;;;;;;;-6.11;92.89;98820.94;5073130;28;20044;-76
2022/01/04 11:13:54;;;;;;;8.40;3.72;;;;;;;-6.10;93.49;98811.09;5091226;28;20040;-75
2022/01/04 11:16:22;;;;;;;5.45;3.08;;;;;;;-6.08;93.12;98814.34;5073179;28;20094;-76
2022/01/04 11:18:51;;;;;;;8.27;4.10;;;;;;;-6.06;93.55;98798.97;5091059;28;20052;-76
2022/01/04 11:21:21;;;;;;;8.45;4.35;;;;;;;-6.08;93.61;98803.69;5072865;28;20093;-75
2022/01/04 11:23:48;;;;;;;6.95;2.50;;;;;;;-6.07;93.44;98816.03;5091011;28;20414;-77
2022/01/04 11:26:14;;;;;;;6.47;3.70;;;;;;;-6.08;93.56;98803.69;5090663;28;20476;-77
2022/01/04 11:28:44;;;;;;;8.32;4.15;;;;;;;-6.08;92.85;98798.34;5089785;28;20044;-76
2022/01/04 11:31:45;;;;;;;8.43;5.00;;;;;;;-6.05;93.72;98797.13;5072754;28;20047;-76
2022/01/04 11:34:17;;;;;;;8.30;4.50;;;;;;;-6.05;93.03;98791.78;5034869;28;20376;-76
2022/01/04 11:36:49;;;;;;;6.50;3.40;;;;;;;-6.04;93.71;98794.22;5092136;28;20036;-76
2022/01/04 11:39:32;;;;;;;9.93;3.47;;;;;;;-6.02;93.53;98786.81;5093616;28;20409;-76
2022/01/04 11:42:00;;;;;;;5.40;3.58;;;;;;;-5.97;93.49;98789.63;5076840;28;20032;-77
2022/01/04 11:44:31;;;;;;;8.98;4.45;;;;;;;-5.91;93.88;98801.28;5093590;28;20055;-78